Ursa Minor — ICGH — position and weather

sailwx.info

Track history (hours):
 
Tides and Currents Weather Stations Pressure Air Temp Water Temp Dewpoint Dewpoint Depression Visibility Wind Speed Wind Dir Waves Ship Positions

Ursa Minor

Last reported at 2017-Jul-22 15:46 UTC. Time now 2017-Jul-22 16:30 UTC.
Position N 38°43' E 015°22'.

Length 205 m; draft 9.1 m.

Type: Cargo ship. MMSI: 247082300.

Date/timePositionNaut miles runAvg speedWind from/ knotsBaromVisibWave heightAir tempDewpointWater temp
2017-Jul-22 15:46N 38°43' E 015°22'310.1
2017-Jul-22 15:30N 38°40' E 015°24'510.1
2017-Jul-22 14:59N 38°36' E 015°28'1010.0
2017-Jul-22 14:00N 38°28' E 015°35'510.3
2017-Jul-22 13:29N 38°23' E 015°39'510.3
2017-Jul-22 13:00N 38°19' E 015°42'6 8.3
2017-Jul-22 12:14N 38°14' E 015°37'2 9.7
2017-Jul-22 12:00N 38°12' E 015°37'4 7.4
2017-Jul-22 11:27N 38°08' E 015°36'4 9.0
2017-Jul-22 10:59N 38°03' E 015°36'6 9.9
2017-Jul-22 10:25N 37°58' E 015°38'5 9.5
2017-Jul-22 09:56N 37°55' E 015°42'6 9.7
2017-Jul-22 09:20N 37°52' E 015°49'4 9.7
2017-Jul-22 08:58N 37°52' E 015°53'1310.0
2017-Jul-22 07:39N 37°54' E 016°10'211.1
2017-Jul-22 07:28N 37°55' E 016°11'7210.2
2017-Jul-22 00:24N 38°50' E 017°11'1110.9
2017-Jul-21 23:27N 38°59' E 017°19'2810.8
2017-Jul-21 20:51N 39°27' E 017°18'410.7
2017-Jul-21 20:29N 39°30' E 017°17'1310.3
2017-Jul-21 19:12N 39°43' E 017°14'2 9.8
2017-Jul-21 19:00N 39°45' E 017°14'510.4
2017-Jul-21 18:30N 39°51' E 017°13'610.5
2017-Jul-21 17:56N 39°56' E 017°12'410.4
2017-Jul-21 17:30N 40°01' E 017°11'610.2
2017-Jul-21 16:57N 40°06' E 017°10'510.5
2017-Jul-21 16:30N 40°11' E 017°09'510.3
2017-Jul-21 15:59N 40°16' E 017°08'5 9.7
2017-Jul-21 15:29N 40°21' E 017°07'5 9.9
2017-Jul-21 15:00N 40°26' E 017°05'4 8.7
2017-Jul-21 14:30N 40°30' E 017°08'1 2.8
2017-Jul-21 14:00N 40°30' E 017°10'0 0.2
2017-Jul-21 13:31N 40°30' E 017°10'0 0.5
2017-Jul-21 13:00N 40°30' E 017°09'0 0.0
2017-Jul-21 12:30N 40°30' E 017°09'0 0.0
2017-Jul-21 12:00N 40°30' E 017°09'0 0.0
2017-Jul-21 11:30N 40°30' E 017°09'0 0.0
2017-Jul-21 11:00N 40°30' E 017°09'0 0.0
2017-Jul-21 09:54N 40°30' E 017°09'0 0.0
2017-Jul-21 08:45N 40°30' E 017°09'0 0.0
2017-Jul-21 07:26N 40°30' E 017°09'0 0.0
2017-Jul-21 07:00N 40°30' E 017°09'0 0.0
2017-Jul-21 05:59N 40°30' E 017°09'0 0.0
2017-Jul-21 05:26N 40°30' E 017°09'0 0.0
2017-Jul-21 04:59N 40°30' E 017°09'0 0.0
2017-Jul-21 04:26N 40°30' E 017°09'0 0.0
2017-Jul-21 03:54N 40°30' E 017°09'0 0.0
2017-Jul-21 03:30N 40°30' E 017°09'0 0.0
2017-Jul-21 03:00N 40°30' E 017°09'0 0.0
2017-Jul-21 02:27N 40°30' E 017°09'0 0.0
2017-Jul-21 02:00N 40°30' E 017°09'0 0.0
2017-Jul-21 01:24N 40°30' E 017°09'0 0.0
2017-Jul-21 01:00N 40°30' E 017°09'0 0.0
2017-Jul-21 00:30N 40°30' E 017°09'0 0.0
2017-Jul-21 00:00N 40°30' E 017°09'0 0.0
2017-Jul-20 23:30N 40°30' E 017°09'0 0.0
2017-Jul-20 22:54N 40°30' E 017°09'0 0.0
2017-Jul-20 22:27N 40°30' E 017°09'0 0.0
2017-Jul-20 21:57N 40°30' E 017°09'0 0.0
2017-Jul-20 21:30N 40°30' E 017°09'0 0.0
2017-Jul-20 21:00N 40°30' E 017°09'0 0.0
2017-Jul-20 20:21N 40°30' E 017°09'0 0.0
2017-Jul-20 20:00N 40°30' E 017°09'0 0.0
2017-Jul-20 18:30N 40°30' E 017°09'0 0.0
2017-Jul-20 17:54N 40°30' E 017°09'0 0.0
2017-Jul-20 17:24N 40°30' E 017°09'0 0.0
2017-Jul-20 16:57N 40°30' E 017°09'0 0.0
2017-Jul-20 16:30N 40°30' E 017°09'0 0.0
2017-Jul-20 15:57N 40°30' E 017°09'0 0.0
2017-Jul-20 15:30N 40°30' E 017°09'0 0.0
2017-Jul-20 14:57N 40°30' E 017°09'0 0.0
2017-Jul-20 14:00N 40°30' E 017°09'0 0.0
2017-Jul-20 13:30N 40°30' E 017°09'0 0.0
2017-Jul-20 12:54N 40°30' E 017°09'0 0.0
2017-Jul-20 12:30N 40°30' E 017°09'0 0.0
2017-Jul-20 11:57N 40°30' E 017°09'0 0.0
2017-Jul-20 11:30N 40°30' E 017°09'0 0.0
2017-Jul-20 11:00N 40°30' E 017°09'0 0.0
2017-Jul-20 10:30N 40°30' E 017°09'0 0.0
2017-Jul-20 09:54N 40°30' E 017°09'0 0.0
2017-Jul-20 09:30N 40°30' E 017°09'0 0.0
2017-Jul-20 09:00N 40°30' E 017°09'0 0.0
2017-Jul-20 08:24N 40°30' E 017°09'0 0.0
2017-Jul-20 07:57N 40°30' E 017°09'0 0.0
2017-Jul-20 07:30N 40°30' E 017°09'0 0.0
2017-Jul-20 06:59N 40°30' E 017°09'0 0.0
2017-Jul-20 06:29N 40°30' E 017°09'0 0.0
2017-Jul-20 05:56N 40°30' E 017°09'0 0.0
2017-Jul-20 05:26N 40°30' E 017°09'0 0.0
2017-Jul-20 04:56N 40°30' E 017°09'0 0.0
2017-Jul-20 04:26N 40°30' E 017°09'0 0.0
2017-Jul-20 03:59N 40°30' E 017°09'0 0.0
2017-Jul-20 03:23N 40°30' E 017°09'0 0.0
2017-Jul-20 02:59N 40°30' E 017°09'0 0.0
2017-Jul-20 02:29N 40°30' E 017°09'0 0.0
2017-Jul-20 01:56N 40°30' E 017°09'0 0.0
2017-Jul-20 01:29N 40°30' E 017°09'0 0.0
2017-Jul-20 00:59N 40°30' E 017°09'0 0.0
2017-Jul-20 00:26N 40°30' E 017°09'0 0.0
2017-Jul-19 23:56N 40°30' E 017°09'0 0.0
2017-Jul-19 23:26N 40°30' E 017°09'0 0.0
2017-Jul-19 22:53N 40°30' E 017°09'0 0.0
2017-Jul-19 22:26N 40°30' E 017°09'0 0.0
2017-Jul-19 21:56N 40°30' E 017°09'0 0.0
2017-Jul-19 21:29N 40°30' E 017°09'0 0.0
2017-Jul-19 20:59N 40°30' E 017°09'0 0.0
2017-Jul-19 20:29N 40°30' E 017°09'0 0.0
2017-Jul-19 19:59N 40°30' E 017°09'0 0.0
2017-Jul-19 19:29N 40°30' E 017°09'0 0.0
2017-Jul-19 18:59N 40°30' E 017°09'0 0.0
2017-Jul-19 18:26N 40°30' E 017°09'0 0.0
2017-Jul-19 11:17N 40°30' E 017°09'0 0.0
2017-Jul-19 10:59N 40°30' E 017°09'0 0.0
2017-Jul-19 10:26N 40°30' E 017°09'0 0.0
2017-Jul-19 09:02N 40°30' E 017°09'0 0.0
2017-Jul-19 08:53N 40°30' E 017°09'0 0.0
2017-Jul-19 08:29N 40°30' E 017°09'0 0.0
2017-Jul-19 07:56N 40°30' E 017°09'0 0.0
2017-Jul-19 07:29N 40°30' E 017°09'0 0.0
2017-Jul-19 06:59N 40°30' E 017°09'0 0.0
2017-Jul-19 06:25N 40°30' E 017°09'0 0.0
2017-Jul-19 05:52N 40°30' E 017°09'0 0.0
2017-Jul-19 05:30N 40°30' E 017°09'0 0.0
2017-Jul-19 05:00N 40°30' E 017°09'0 0.0
2017-Jul-19 04:30N 40°30' E 017°09'0 0.0
2017-Jul-19 03:59N 40°30' E 017°09'0 0.0
2017-Jul-19 03:28N 40°30' E 017°09'0 0.0
2017-Jul-19 03:00N 40°30' E 017°09'0 0.0
2017-Jul-19 02:29N 40°30' E 017°09'0 0.0
2017-Jul-19 02:01N 40°30' E 017°09'0 0.0
2017-Jul-19 01:31N 40°30' E 017°09'0 0.0
2017-Jul-19 01:00N 40°30' E 017°09'0 0.0
2017-Jul-19 00:30N 40°30' E 017°09'0 0.0
2017-Jul-19 00:00N 40°30' E 017°09'0 0.0
2017-Jul-18 23:31N 40°30' E 017°09'0 0.0
2017-Jul-18 23:00N 40°30' E 017°09'0 0.0
2017-Jul-18 22:30N 40°30' E 017°09'0 0.0
2017-Jul-18 22:00N 40°30' E 017°09'0 0.0
2017-Jul-18 21:30N 40°30' E 017°09'1 1.0
2017-Jul-18 21:00N 40°30' E 017°09'3 6.5
2017-Jul-18 20:29N 40°27' E 017°07'3 5.2
2017-Jul-18 20:00N 40°25' E 017°09'1 1.5
2017-Jul-18 19:30N 40°24' E 017°09'4 7.7
2017-Jul-18 19:00N 40°20' E 017°08'510.1
2017-Jul-18 18:31N 40°15' E 017°09'510.4
2017-Jul-18 18:00N 40°10' E 017°09'510.3
2017-Jul-18 17:29N 40°05' E 017°10'510.3
2017-Jul-18 17:00N 39°60' E 017°11'510.3
2017-Jul-18 16:30N 39°55' E 017°11'610.5
2017-Jul-18 15:54N 39°48' E 017°12'133 8.2
2017-Jul-17 23:42N 37°57' E 015°39'610.1
2017-Jul-17 23:04N 38°02' E 015°36'110.1
2017-Jul-17 22:58N 38°03' E 015°35'510.4
2017-Jul-17 22:30N 38°08' E 015°35'510.5
2017-Jul-17 22:00N 38°13' E 015°36'5 9.9
2017-Jul-17 21:29N 38°18' E 015°40'510.6
2017-Jul-17 21:00N 38°22' E 015°38'6 9.8
2017-Jul-17 20:23N 38°28' E 015°35'510.0
2017-Jul-17 19:52N 38°32' E 015°32'610.5
2017-Jul-17 19:19N 38°37' E 015°28'13510.7
2017-Jul-17 06:48N 40°33' E 013°58'310.5
2017-Jul-17 06:30N 40°35' E 013°55'24310.4
2017-Jul-16 07:08N 43°16' E 009°51'211.1
2017-Jul-16 07:00N 43°18' E 009°50'510.9
2017-Jul-16 06:31N 43°22' E 009°46'510.5
2017-Jul-16 06:00N 43°27' E 009°42'510.4
2017-Jul-16 05:30N 43°31' E 009°38'510.3
2017-Jul-16 05:00N 43°36' E 009°35'510.3
2017-Jul-16 04:30N 43°40' E 009°31'510.2
2017-Jul-16 04:00N 43°45' E 009°28'510.2
2017-Jul-16 03:30N 43°49' E 009°24'510.2
2017-Jul-16 03:00N 43°53' E 009°20'510.3
2017-Jul-16 02:30N 43°58' E 009°17'510.4
2017-Jul-16 02:00N 44°02' E 009°13'510.5
2017-Jul-16 01:30N 44°07' E 009°09'510.8
2017-Jul-16 01:01N 44°11' E 009°05'510.8
2017-Jul-16 00:30N 44°16' E 009°01'510.6
2017-Jul-16 00:00N 44°20' E 008°57'5 9.3
2017-Jul-15 23:30N 44°24' E 008°53'1 1.3
2017-Jul-15 23:00N 44°24' E 008°52'0 0.0
2017-Jul-15 22:30N 44°24' E 008°52'0 0.0
2017-Jul-15 22:00N 44°24' E 008°52'0 0.0
2017-Jul-15 21:30N 44°24' E 008°52'0 0.0
2017-Jul-15 21:00N 44°24' E 008°52'0 0.0
2017-Jul-15 20:30N 44°24' E 008°52'0 0.0
2017-Jul-15 19:56N 44°24' E 008°52'0 0.0
2017-Jul-15 19:26N 44°24' E 008°52'0 0.0
2017-Jul-15 18:57N 44°24' E 008°52'0 0.0
2017-Jul-15 18:30N 44°24' E 008°52'0 0.0
2017-Jul-15 18:00N 44°24' E 008°52'0 0.0
2017-Jul-15 17:30N 44°24' E 008°52'0 0.0
2017-Jul-15 17:00N 44°24' E 008°52'0 0.4
2017-Jul-15 16:30N 44°24' E 008°52'0 0.2
2017-Jul-15 16:00N 44°24' E 008°52'1 2.6
2017-Jul-15 15:30N 44°24' E 008°54'4 7.1
2017-Jul-15 15:00N 44°22' E 008°58'9 8.6
2017-Jul-15 13:59N 44°14' E 009°04'510.7
2017-Jul-15 13:30N 44°10' E 009°08'510.7
2017-Jul-15 13:00N 44°05' E 009°12'510.9
2017-Jul-15 12:31N 44°00' E 009°15'610.9
2017-Jul-15 12:00N 43°55' E 009°18'511.0
2017-Jul-15 11:30N 43°51' E 009°22'510.9
2017-Jul-15 11:00N 43°46' E 009°26'510.8
2017-Jul-15 10:31N 43°41' E 009°30'510.8
2017-Jul-15 10:00N 43°37' E 009°33'510.7
2017-Jul-15 09:31N 43°32' E 009°37'510.5
2017-Jul-15 09:00N 43°27' E 009°41'610.3
2017-Jul-15 08:26N 43°22' E 009°45'410.0
2017-Jul-15 08:00N 43°19' E 009°47'5 9.9
2017-Jul-15 07:30N 43°14' E 009°51'510.2
2017-Jul-15 07:00N 43°10' E 009°55'510.4
2017-Jul-15 06:30N 43°05' E 009°58'610.4
2017-Jul-15 05:58N 43°00' E 009°60'1510.3
2017-Jul-15 04:30N 42°45' E 010°00'710.7
2017-Jul-15 03:53N 42°41' E 010°07'810.8
2017-Jul-15 03:09N 42°36' E 010°16'210.7
2017-Jul-15 02:57N 42°35' E 010°18'710.8
2017-Jul-15 02:18N 42°30' E 010°26'411.0
2017-Jul-15 01:55N 42°28' E 010°30'511.0
2017-Jul-15 01:27N 42°24' E 010°35'2210.5
2017-Jul-14 23:22N 42°10' E 010°58'30410.5
2017-Jul-13 18:25N 38°30' E 015°33'510.4
2017-Jul-13 17:58N 38°26' E 015°36'510.6
2017-Jul-13 17:30N 38°22' E 015°39'510.5
2017-Jul-13 17:00N 38°18' E 015°43'510.2
2017-Jul-13 16:30N 38°14' E 015°38'5 9.5
2017-Jul-13 16:00N 38°10' E 015°37'4 8.4
2017-Jul-13 15:30N 38°06' E 015°36'4 8.7
2017-Jul-13 15:00N 38°01' E 015°36'510.6
2017-Jul-13 14:30N 37°56' E 015°39'611.5
2017-Jul-13 14:00N 37°53' E 015°45'611.3
2017-Jul-13 13:28N 37°53' E 015°52'611.6
2017-Jul-13 13:00N 37°52' E 015°59'10710.3
2017-Jul-13 02:39N 39°21' E 017°16'211.3
2017-Jul-13 02:30N 39°23' E 017°16'611.3
2017-Jul-13 02:00N 39°28' E 017°15'611.1
2017-Jul-13 01:30N 39°34' E 017°15'611.1
2017-Jul-13 00:58N 39°40' E 017°14'3511.1
2017-Jul-12 21:49N 40°14' E 017°08'411.1
2017-Jul-12 21:28N 40°18' E 017°07'511.1
2017-Jul-12 21:00N 40°23' E 017°06'510.5
2017-Jul-12 20:30N 40°29' E 017°06'3 5.7
2017-Jul-12 19:58N 40°30' E 017°09'0 0.1
2017-Jul-12 19:22N 40°30' E 017°09'0 0.0
2017-Jul-12 18:59N 40°30' E 017°09'0 0.0
2017-Jul-12 18:29N 40°30' E 017°09'0 0.0
2017-Jul-12 17:58N 40°30' E 017°09'0 0.0
2017-Jul-12 17:29N 40°30' E 017°09'0 0.0
2017-Jul-12 16:58N 40°30' E 017°09'0 0.0
2017-Jul-12 16:30N 40°30' E 017°09'0 0.0
2017-Jul-12 15:54N 40°30' E 017°09'  
Track history (hours):
 
Tides and Currents Weather Stations Pressure Air Temp Water Temp Dewpoint Dewpoint Depression Visibility Wind Speed Wind Dir Waves Ship Positions

Ursa Minor

Last reported at 2017-Jul-22 15:46 UTC. Time now 2017-Jul-22 16:30 UTC.
Position N 38°43' E 015°22'.

Length 205 m; draft 9.1 m.

Type: Cargo ship. MMSI: 247082300.

Date/timePositionNaut miles runAvg speedWind from/ knotsBaromVisibWave heightAir tempDewpointWater temp
2017-Jul-22 15:46N 38°43' E 015°22'310.1
2017-Jul-22 15:30N 38°40' E 015°24'510.1
2017-Jul-22 14:59N 38°36' E 015°28'1010.0
2017-Jul-22 14:00N 38°28' E 015°35'510.3
2017-Jul-22 13:29N 38°23' E 015°39'510.3
2017-Jul-22 13:00N 38°19' E 015°42'6 8.3
2017-Jul-22 12:14N 38°14' E 015°37'2 9.7
2017-Jul-22 12:00N 38°12' E 015°37'4 7.4
2017-Jul-22 11:27N 38°08' E 015°36'4 9.0
2017-Jul-22 10:59N 38°03' E 015°36'6 9.9
2017-Jul-22 10:25N 37°58' E 015°38'5 9.5
2017-Jul-22 09:56N 37°55' E 015°42'6 9.7
2017-Jul-22 09:20N 37°52' E 015°49'4 9.7
2017-Jul-22 08:58N 37°52' E 015°53'1310.0
2017-Jul-22 07:39N 37°54' E 016°10'211.1
2017-Jul-22 07:28N 37°55' E 016°11'7210.2
2017-Jul-22 00:24N 38°50' E 017°11'1110.9
2017-Jul-21 23:27N 38°59' E 017°19'2810.8
2017-Jul-21 20:51N 39°27' E 017°18'410.7
2017-Jul-21 20:29N 39°30' E 017°17'1310.3
2017-Jul-21 19:12N 39°43' E 017°14'2 9.8
2017-Jul-21 19:00N 39°45' E 017°14'510.4
2017-Jul-21 18:30N 39°51' E 017°13'610.5
2017-Jul-21 17:56N 39°56' E 017°12'410.4
2017-Jul-21 17:30N 40°01' E 017°11'610.2
2017-Jul-21 16:57N 40°06' E 017°10'510.5
2017-Jul-21 16:30N 40°11' E 017°09'510.3
2017-Jul-21 15:59N 40°16' E 017°08'5 9.7
2017-Jul-21 15:29N 40°21' E 017°07'5 9.9
2017-Jul-21 15:00N 40°26' E 017°05'4 8.7
2017-Jul-21 14:30N 40°30' E 017°08'1 2.8
2017-Jul-21 14:00N 40°30' E 017°10'0 0.2
2017-Jul-21 13:31N 40°30' E 017°10'0 0.5
2017-Jul-21 13:00N 40°30' E 017°09'0 0.0
2017-Jul-21 12:30N 40°30' E 017°09'0 0.0
2017-Jul-21 12:00N 40°30' E 017°09'0 0.0
2017-Jul-21 11:30N 40°30' E 017°09'0 0.0
2017-Jul-21 11:00N 40°30' E 017°09'0 0.0
2017-Jul-21 09:54N 40°30' E 017°09'0 0.0
2017-Jul-21 08:45N 40°30' E 017°09'0 0.0
2017-Jul-21 07:26N 40°30' E 017°09'0 0.0
2017-Jul-21 07:00N 40°30' E 017°09'0 0.0
2017-Jul-21 05:59N 40°30' E 017°09'0 0.0
2017-Jul-21 05:26N 40°30' E 017°09'0 0.0
2017-Jul-21 04:59N 40°30' E 017°09'0 0.0
2017-Jul-21 04:26N 40°30' E 017°09'0 0.0
2017-Jul-21 03:54N 40°30' E 017°09'0 0.0
2017-Jul-21 03:30N 40°30' E 017°09'0 0.0
2017-Jul-21 03:00N 40°30' E 017°09'0 0.0
2017-Jul-21 02:27N 40°30' E 017°09'0 0.0
2017-Jul-21 02:00N 40°30' E 017°09'0 0.0
2017-Jul-21 01:24N 40°30' E 017°09'0 0.0
2017-Jul-21 01:00N 40°30' E 017°09'0 0.0
2017-Jul-21 00:30N 40°30' E 017°09'0 0.0
2017-Jul-21 00:00N 40°30' E 017°09'0 0.0
2017-Jul-20 23:30N 40°30' E 017°09'0 0.0
2017-Jul-20 22:54N 40°30' E 017°09'0 0.0
2017-Jul-20 22:27N 40°30' E 017°09'0 0.0
2017-Jul-20 21:57N 40°30' E 017°09'0 0.0
2017-Jul-20 21:30N 40°30' E 017°09'0 0.0
2017-Jul-20 21:00N 40°30' E 017°09'0 0.0
2017-Jul-20 20:21N 40°30' E 017°09'0 0.0
2017-Jul-20 20:00N 40°30' E 017°09'0 0.0
2017-Jul-20 18:30N 40°30' E 017°09'0 0.0
2017-Jul-20 17:54N 40°30' E 017°09'0 0.0
2017-Jul-20 17:24N 40°30' E 017°09'0 0.0
2017-Jul-20 16:57N 40°30' E 017°09'0 0.0
2017-Jul-20 16:30N 40°30' E 017°09'0 0.0
2017-Jul-20 15:57N 40°30' E 017°09'0 0.0
2017-Jul-20 15:30N 40°30' E 017°09'0 0.0
2017-Jul-20 14:57N 40°30' E 017°09'0 0.0
2017-Jul-20 14:00N 40°30' E 017°09'0 0.0
2017-Jul-20 13:30N 40°30' E 017°09'0 0.0
2017-Jul-20 12:54N 40°30' E 017°09'0 0.0
2017-Jul-20 12:30N 40°30' E 017°09'0 0.0
2017-Jul-20 11:57N 40°30' E 017°09'0 0.0
2017-Jul-20 11:30N 40°30' E 017°09'0 0.0
2017-Jul-20 11:00N 40°30' E 017°09'0 0.0
2017-Jul-20 10:30N 40°30' E 017°09'0 0.0
2017-Jul-20 09:54N 40°30' E 017°09'0 0.0
2017-Jul-20 09:30N 40°30' E 017°09'0 0.0
2017-Jul-20 09:00N 40°30' E 017°09'0 0.0
2017-Jul-20 08:24N 40°30' E 017°09'0 0.0
2017-Jul-20 07:57N 40°30' E 017°09'0 0.0
2017-Jul-20 07:30N 40°30' E 017°09'0 0.0
2017-Jul-20 06:59N 40°30' E 017°09'0 0.0
2017-Jul-20 06:29N 40°30' E 017°09'0 0.0
2017-Jul-20 05:56N 40°30' E 017°09'0 0.0
2017-Jul-20 05:26N 40°30' E 017°09'0 0.0
2017-Jul-20 04:56N 40°30' E 017°09'0 0.0
2017-Jul-20 04:26N 40°30' E 017°09'0 0.0
2017-Jul-20 03:59N 40°30' E 017°09'0 0.0
2017-Jul-20 03:23N 40°30' E 017°09'0 0.0
2017-Jul-20 02:59N 40°30' E 017°09'0 0.0
2017-Jul-20 02:29N 40°30' E 017°09'0 0.0
2017-Jul-20 01:56N 40°30' E 017°09'0 0.0
2017-Jul-20 01:29N 40°30' E 017°09'0 0.0
2017-Jul-20 00:59N 40°30' E 017°09'0 0.0
2017-Jul-20 00:26N 40°30' E 017°09'0 0.0
2017-Jul-19 23:56N 40°30' E 017°09'0 0.0
2017-Jul-19 23:26N 40°30' E 017°09'0 0.0
2017-Jul-19 22:53N 40°30' E 017°09'0 0.0
2017-Jul-19 22:26N 40°30' E 017°09'0 0.0
2017-Jul-19 21:56N 40°30' E 017°09'0 0.0
2017-Jul-19 21:29N 40°30' E 017°09'0 0.0
2017-Jul-19 20:59N 40°30' E 017°09'0 0.0
2017-Jul-19 20:29N 40°30' E 017°09'0 0.0
2017-Jul-19 19:59N 40°30' E 017°09'0 0.0
2017-Jul-19 19:29N 40°30' E 017°09'0 0.0
2017-Jul-19 18:59N 40°30' E 017°09'0 0.0
2017-Jul-19 18:26N 40°30' E 017°09'0 0.0
2017-Jul-19 11:17N 40°30' E 017°09'0 0.0
2017-Jul-19 10:59N 40°30' E 017°09'0 0.0
2017-Jul-19 10:26N 40°30' E 017°09'0 0.0
2017-Jul-19 09:02N 40°30' E 017°09'0 0.0
2017-Jul-19 08:53N 40°30' E 017°09'0 0.0
2017-Jul-19 08:29N 40°30' E 017°09'0 0.0
2017-Jul-19 07:56N 40°30' E 017°09'0 0.0
2017-Jul-19 07:29N 40°30' E 017°09'0 0.0
2017-Jul-19 06:59N 40°30' E 017°09'0 0.0
2017-Jul-19 06:25N 40°30' E 017°09'0 0.0
2017-Jul-19 05:52N 40°30' E 017°09'0 0.0
2017-Jul-19 05:30N 40°30' E 017°09'0 0.0
2017-Jul-19 05:00N 40°30' E 017°09'0 0.0
2017-Jul-19 04:30N 40°30' E 017°09'0 0.0
2017-Jul-19 03:59N 40°30' E 017°09'0 0.0
2017-Jul-19 03:28N 40°30' E 017°09'0 0.0
2017-Jul-19 03:00N 40°30' E 017°09'0 0.0
2017-Jul-19 02:29N 40°30' E 017°09'0 0.0
2017-Jul-19 02:01N 40°30' E 017°09'0 0.0
2017-Jul-19 01:31N 40°30' E 017°09'0 0.0
2017-Jul-19 01:00N 40°30' E 017°09'0 0.0
2017-Jul-19 00:30N 40°30' E 017°09'0 0.0
2017-Jul-19 00:00N 40°30' E 017°09'0 0.0
2017-Jul-18 23:31N 40°30' E 017°09'0 0.0
2017-Jul-18 23:00N 40°30' E 017°09'0 0.0
2017-Jul-18 22:30N 40°30' E 017°09'0 0.0
2017-Jul-18 22:00N 40°30' E 017°09'0 0.0
2017-Jul-18 21:30N 40°30' E 017°09'1 1.0
2017-Jul-18 21:00N 40°30' E 017°09'3 6.5
2017-Jul-18 20:29N 40°27' E 017°07'3 5.2
2017-Jul-18 20:00N 40°25' E 017°09'1 1.5
2017-Jul-18 19:30N 40°24' E 017°09'4 7.7
2017-Jul-18 19:00N 40°20' E 017°08'510.1
2017-Jul-18 18:31N 40°15' E 017°09'510.4
2017-Jul-18 18:00N 40°10' E 017°09'510.3
2017-Jul-18 17:29N 40°05' E 017°10'510.3
2017-Jul-18 17:00N 39°60' E 017°11'510.3
2017-Jul-18 16:30N 39°55' E 017°11'610.5
2017-Jul-18 15:54N 39°48' E 017°12'133 8.2
2017-Jul-17 23:42N 37°57' E 015°39'610.1
2017-Jul-17 23:04N 38°02' E 015°36'110.1
2017-Jul-17 22:58N 38°03' E 015°35'510.4
2017-Jul-17 22:30N 38°08' E 015°35'510.5
2017-Jul-17 22:00N 38°13' E 015°36'5 9.9
2017-Jul-17 21:29N 38°18' E 015°40'510.6
2017-Jul-17 21:00N 38°22' E 015°38'6 9.8
2017-Jul-17 20:23N 38°28' E 015°35'510.0
2017-Jul-17 19:52N 38°32' E 015°32'610.5
2017-Jul-17 19:19N 38°37' E 015°28'13510.7
2017-Jul-17 06:48N 40°33' E 013°58'310.5
2017-Jul-17 06:30N 40°35' E 013°55'24310.4
2017-Jul-16 07:08N 43°16' E 009°51'211.1
2017-Jul-16 07:00N 43°18' E 009°50'510.9
2017-Jul-16 06:31N 43°22' E 009°46'510.5
2017-Jul-16 06:00N 43°27' E 009°42'510.4
2017-Jul-16 05:30N 43°31' E 009°38'510.3
2017-Jul-16 05:00N 43°36' E 009°35'510.3
2017-Jul-16 04:30N 43°40' E 009°31'510.2
2017-Jul-16 04:00N 43°45' E 009°28'510.2
2017-Jul-16 03:30N 43°49' E 009°24'510.2
2017-Jul-16 03:00N 43°53' E 009°20'510.3
2017-Jul-16 02:30N 43°58' E 009°17'510.4
2017-Jul-16 02:00N 44°02' E 009°13'510.5
2017-Jul-16 01:30N 44°07' E 009°09'510.8
2017-Jul-16 01:01N 44°11' E 009°05'510.8
2017-Jul-16 00:30N 44°16' E 009°01'510.6
2017-Jul-16 00:00N 44°20' E 008°57'5 9.3
2017-Jul-15 23:30N 44°24' E 008°53'1 1.3
2017-Jul-15 23:00N 44°24' E 008°52'0 0.0
2017-Jul-15 22:30N 44°24' E 008°52'0 0.0
2017-Jul-15 22:00N 44°24' E 008°52'0 0.0
2017-Jul-15 21:30N 44°24' E 008°52'0 0.0
2017-Jul-15 21:00N 44°24' E 008°52'0 0.0
2017-Jul-15 20:30N 44°24' E 008°52'0 0.0
2017-Jul-15 19:56N 44°24' E 008°52'0 0.0
2017-Jul-15 19:26N 44°24' E 008°52'0 0.0
2017-Jul-15 18:57N 44°24' E 008°52'0 0.0
2017-Jul-15 18:30N 44°24' E 008°52'0 0.0
2017-Jul-15 18:00N 44°24' E 008°52'0 0.0
2017-Jul-15 17:30N 44°24' E 008°52'0 0.0
2017-Jul-15 17:00N 44°24' E 008°52'0 0.4
2017-Jul-15 16:30N 44°24' E 008°52'0 0.2
2017-Jul-15 16:00N 44°24' E 008°52'1 2.6
2017-Jul-15 15:30N 44°24' E 008°54'4 7.1
2017-Jul-15 15:00N 44°22' E 008°58'9 8.6
2017-Jul-15 13:59N 44°14' E 009°04'510.7
2017-Jul-15 13:30N 44°10' E 009°08'510.7
2017-Jul-15 13:00N 44°05' E 009°12'510.9
2017-Jul-15 12:31N 44°00' E 009°15'610.9
2017-Jul-15 12:00N 43°55' E 009°18'511.0
2017-Jul-15 11:30N 43°51' E 009°22'510.9
2017-Jul-15 11:00N 43°46' E 009°26'510.8
2017-Jul-15 10:31N 43°41' E 009°30'510.8
2017-Jul-15 10:00N 43°37' E 009°33'510.7
2017-Jul-15 09:31N 43°32' E 009°37'510.5
2017-Jul-15 09:00N 43°27' E 009°41'610.3
2017-Jul-15 08:26N 43°22' E 009°45'410.0
2017-Jul-15 08:00N 43°19' E 009°47'5 9.9
2017-Jul-15 07:30N 43°14' E 009°51'510.2
2017-Jul-15 07:00N 43°10' E 009°55'510.4
2017-Jul-15 06:30N 43°05' E 009°58'610.4
2017-Jul-15 05:58N 43°00' E 009°60'1510.3
2017-Jul-15 04:30N 42°45' E 010°00'710.7
2017-Jul-15 03:53N 42°41' E 010°07'810.8
2017-Jul-15 03:09N 42°36' E 010°16'210.7
2017-Jul-15 02:57N 42°35' E 010°18'710.8
2017-Jul-15 02:18N 42°30' E 010°26'411.0
2017-Jul-15 01:55N 42°28' E 010°30'511.0
2017-Jul-15 01:27N 42°24' E 010°35'2210.5
2017-Jul-14 23:22N 42°10' E 010°58'30410.5
2017-Jul-13 18:25N 38°30' E 015°33'510.4
2017-Jul-13 17:58N 38°26' E 015°36'510.6
2017-Jul-13 17:30N 38°22' E 015°39'510.5
2017-Jul-13 17:00N 38°18' E 015°43'510.2
2017-Jul-13 16:30N 38°14' E 015°38'5 9.5
2017-Jul-13 16:00N 38°10' E 015°37'4 8.4
2017-Jul-13 15:30N 38°06' E 015°36'4 8.7
2017-Jul-13 15:00N 38°01' E 015°36'510.6
2017-Jul-13 14:30N 37°56' E 015°39'611.5
2017-Jul-13 14:00N 37°53' E 015°45'611.3
2017-Jul-13 13:28N 37°53' E 015°52'611.6
2017-Jul-13 13:00N 37°52' E 015°59'10710.3
2017-Jul-13 02:39N 39°21' E 017°16'211.3
2017-Jul-13 02:30N 39°23' E 017°16'611.3
2017-Jul-13 02:00N 39°28' E 017°15'611.1
2017-Jul-13 01:30N 39°34' E 017°15'611.1
2017-Jul-13 00:58N 39°40' E 017°14'3511.1
2017-Jul-12 21:49N 40°14' E 017°08'411.1
2017-Jul-12 21:28N 40°18' E 017°07'511.1
2017-Jul-12 21:00N 40°23' E 017°06'510.5
2017-Jul-12 20:30N 40°29' E 017°06'3 5.7
2017-Jul-12 19:58N 40°30' E 017°09'0 0.1
2017-Jul-12 19:22N 40°30' E 017°09'0 0.0
2017-Jul-12 18:59N 40°30' E 017°09'0 0.0
2017-Jul-12 18:29N 40°30' E 017°09'0 0.0
2017-Jul-12 17:58N 40°30' E 017°09'0 0.0
2017-Jul-12 17:29N 40°30' E 017°09'0 0.0
2017-Jul-12 16:58N 40°30' E 017°09'0 0.0
2017-Jul-12 16:30N 40°30' E 017°09'0 0.0
2017-Jul-12 15:54N 40°30' E 017°09'  

Dump ship's entire track history